Time;durP1;ratioP1;P1;durP2;ratioP2;P2;SDS_P1;SDS_P2;PMS_P1;PMS_P2;Temp;Humidity;BMP_temperature;BMP_pressure;BME280_temperature;BME280_humidity;BME280_pressure;Samples;Min_cycle;Max_cycle;Signal;HPM_P1;HPM_P2
2022/01/06 00:01:41;;;;;;;11.60;0.80;;;2.50;99.90;;;;;;5067062;28;20017;-76
2022/01/06 00:04:06;;;;;;;15.50;1.25;;;2.40;99.90;;;;;;5049512;28;20051;-76
2022/01/06 00:06:37;;;;;;;17.10;1.05;;;2.50;99.90;;;;;;5066908;28;20032;-75
2022/01/06 00:09:05;;;;;;;18.33;2.15;;;2.50;99.90;;;;;;5066058;28;20028;-76
2022/01/06 00:11:31;;;;;;;14.85;1.00;;;2.60;99.90;;;;;;5066690;28;20021;-75
2022/01/06 00:14:03;;;;;;;16.38;1.00;;;2.50;99.90;;;;;;5049096;28;20057;-75
2022/01/06 00:16:44;;;;;;;19.13;1.23;;;2.50;99.90;;;;;;5067063;28;20373;-75
2022/01/06 00:24:23;;;;;;;16.70;1.08;;;2.50;99.90;;;;;;5066851;28;20036;-75
2022/01/06 00:26:50;;;;;;;13.40;0.65;;;2.40;99.90;;;;;;5048833;28;20036;-75
2022/01/06 00:29:18;;;;;;;12.75;1.75;;;2.30;99.90;;;;;;5048917;28;20025;-76
2022/01/06 00:31:44;;;;;;;13.27;1.30;;;2.40;99.90;;;;;;5048635;28;20041;-76
2022/01/06 00:34:12;;;;;;;12.70;1.73;;;2.40;99.90;;;;;;5048851;28;20037;-75
2022/01/06 00:36:39;;;;;;;25.92;1.20;;;2.40;99.90;;;;;;5032484;28;20033;-75
2022/01/06 00:39:06;;;;;;;17.70;1.00;;;2.30;99.90;;;;;;5066563;28;20074;-75
2022/01/06 00:41:34;;;;;;;10.15;1.65;;;2.30;99.90;;;;;;5066290;28;20021;-75
2022/01/06 00:44:00;;;;;;;15.20;1.10;;;2.30;99.90;;;;;;5048660;28;20071;-76
2022/01/06 00:46:26;;;;;;;9.15;0.70;;;2.30;99.90;;;;;;5048541;28;20369;-75
2022/01/06 00:48:52;;;;;;;11.73;0.70;;;2.20;99.90;;;;;;5048517;28;20067;-75
2022/01/06 00:51:17;;;;;;;13.55;0.90;;;2.10;99.90;;;;;;5066153;28;20088;-76
2022/01/06 00:53:43;;;;;;;11.25;0.98;;;2.20;99.90;;;;;;5015220;28;20029;-75
2022/01/06 00:56:08;;;;;;;15.40;0.73;;;2.20;99.90;;;;;;5048240;28;20477;-75
2022/01/06 00:58:35;;;;;;;17.30;0.70;;;2.20;99.90;;;;;;5047569;28;20064;-75
2022/01/06 01:01:01;;;;;;;11.57;0.75;;;2.20;99.90;;;;;;5064644;28;20413;-76
2022/01/06 01:03:28;;;;;;;11.93;0.80;;;2.20;99.90;;;;;;5065926;28;20028;-75
2022/01/06 01:05:55;;;;;;;14.57;1.55;;;2.20;99.90;;;;;;5048038;28;20045;-76
2022/01/06 01:08:22;;;;;;;13.10;0.80;;;2.20;99.90;;;;;;5048106;28;20043;-75
2022/01/06 01:10:50;;;;;;;10.05;1.13;;;2.30;99.90;;;;;;5047775;28;20025;-75
2022/01/06 01:13:16;;;;;;;14.20;0.90;;;2.20;99.90;;;;;;5049950;28;20045;-75
2022/01/06 01:15:51;;;;;;;16.25;1.30;;;2.20;99.90;;;;;;5048465;28;20028;-76
2022/01/06 01:18:19;;;;;;;10.52;0.70;;;2.20;99.90;;;;;;5065840;28;20606;-75
2022/01/06 01:20:46;;;;;;;13.23;1.35;;;2.10;99.90;;;;;;5047707;28;20039;-75
2022/01/06 01:23:12;;;;;;;14.23;0.70;;;2.10;99.90;;;;;;5065611;28;20029;-75
2022/01/06 01:25:38;;;;;;;14.18;0.70;;;2.20;99.90;;;;;;5047509;28;20029;-75
2022/01/06 01:28:04;;;;;;;8.65;0.60;;;2.30;99.90;;;;;;5065439;28;20033;-76
2022/01/06 01:30:39;;;;;;;11.88;0.80;;;2.10;99.90;;;;;;5047681;28;20033;-75
2022/01/06 01:33:13;;;;;;;12.32;0.70;;;2.00;99.90;;;;;;5068173;28;20048;-76
2022/01/06 01:35:40;;;;;;;12.50;0.77;;;2.00;99.90;;;;;;5047766;28;20033;-75
2022/01/06 01:38:06;;;;;;;6.45;0.40;;;1.90;99.90;;;;;;5065350;28;20515;-76
2022/01/06 01:40:32;;;;;;;11.70;1.20;;;1.90;99.90;;;;;;5065294;28;20029;-75
2022/01/06 01:42:58;;;;;;;9.27;0.68;;;1.90;99.90;;;;;;5065274;28;20036;-76
2022/01/06 01:45:29;;;;;;;15.00;1.13;;;1.90;99.90;;;;;;5065169;28;20138;-75
2022/01/06 01:47:57;;;;;;;13.40;0.63;;;1.80;99.90;;;;;;5065211;28;20040;-76
2022/01/06 01:50:23;;;;;;;15.25;0.70;;;1.80;99.90;;;;;;5047133;28;20025;-75
2022/01/06 01:52:52;;;;;;;12.75;0.77;;;1.80;99.90;;;;;;5065264;28;20147;-75
2022/01/06 01:55:24;;;;;;;12.50;0.70;;;1.80;99.90;;;;;;5065150;28;20033;-75
2022/01/06 01:57:50;;;;;;;9.07;0.40;;;1.80;99.90;;;;;;5056648;28;20063;-76
2022/01/06 02:00:18;;;;;;;9.82;0.50;;;1.70;99.90;;;;;;5046498;28;20093;-75
2022/01/06 02:06:31;;;;;;;6.63;0.25;;;1.60;99.90;;;;;;5061692;28;20032;-76
2022/01/06 02:08:56;;;;;;;7.10;0.32;;;1.50;99.90;;;;;;5062592;28;20029;-75
2022/01/06 02:11:23;;;;;;;2.92;0.20;;;1.40;99.90;;;;;;5028379;28;20043;-76
2022/01/06 02:13:53;;;;;;;5.43;0.30;;;1.40;99.90;;;;;;5046875;28;20044;-76
2022/01/06 02:16:21;;;;;;;10.27;0.68;;;1.40;99.90;;;;;;5065230;28;20033;-76
2022/01/06 02:18:48;;;;;;;8.68;0.50;;;1.40;99.90;;;;;;5063839;28;20032;-75
2022/01/06 02:21:13;;;;;;;9.10;0.47;;;1.40;99.90;;;;;;5048104;28;20029;-76
2022/01/06 02:23:39;;;;;;;12.85;0.50;;;1.40;99.90;;;;;;5046139;28;20025;-75
2022/01/06 02:26:04;;;;;;;8.25;1.17;;;1.40;99.90;;;;;;5043862;28;20087;-76
2022/01/06 02:28:30;;;;;;;6.00;0.25;;;1.40;99.90;;;;;;5043337;28;20166;-76
2022/01/06 02:30:57;;;;;;;6.38;0.30;;;1.40;99.90;;;;;;5047026;28;20025;-75
2022/01/06 02:33:24;;;;;;;6.47;0.75;;;1.30;99.90;;;;;;5063527;28;20041;-76
2022/01/06 02:35:50;;;;;;;8.70;0.50;;;1.20;99.90;;;;;;5064926;28;20025;-75
2022/01/06 02:38:17;;;;;;;9.70;0.70;;;1.30;99.90;;;;;;5064768;28;20127;-76
2022/01/06 02:40:45;;;;;;;13.30;0.50;;;1.40;99.90;;;;;;5064565;28;20044;-75
2022/01/06 02:43:13;;;;;;;9.38;0.50;;;1.40;99.90;;;;;;5046648;28;20033;-75
2022/01/06 02:45:39;;;;;;;5.78;0.88;;;1.30;99.90;;;;;;5047030;28;20036;-76
2022/01/06 02:48:10;;;;;;;10.05;0.60;;;1.40;99.90;;;;;;5046788;28;20029;-75
2022/01/06 02:50:42;;;;;;;15.10;0.88;;;1.50;99.90;;;;;;5046738;28;20029;-76
2022/01/06 02:53:10;;;;;;;5.78;0.40;;;1.50;99.90;;;;;;5049522;28;20041;-76
2022/01/06 02:55:55;;;;;;;11.40;0.60;;;1.50;99.90;;;;;;5043754;28;20024;-75
2022/01/06 02:58:21;;;;;;;10.25;0.68;;;1.50;99.90;;;;;;4963723;28;20071;-75
2022/01/06 03:00:48;;;;;;;10.98;0.70;;;1.60;99.90;;;;;;4963863;29;20114;-76
2022/01/06 03:03:13;;;;;;;13.80;0.80;;;1.70;99.90;;;;;;4963860;29;20035;-76
2022/01/06 03:05:39;;;;;;;6.45;0.50;;;1.70;99.90;;;;;;4963814;29;20099;-75
2022/01/06 03:08:05;;;;;;;11.98;0.57;;;1.70;99.90;;;;;;4964059;29;20054;-76
2022/01/06 03:10:35;;;;;;;9.02;0.47;;;1.70;99.90;;;;;;4963654;29;20046;-76
2022/01/06 03:13:01;;;;;;;;;;;1.80;99.90;;;;;;4964372;29;20050;-75
2022/01/06 03:15:27;;;;;;;9.68;0.40;;;1.80;99.90;;;;;;4947932;29;19910;-77
2022/01/06 03:17:57;;;;;;;15.82;1.02;;;1.80;99.90;;;;;;4963923;29;20062;-75
2022/01/06 03:20:26;;;;;;;7.22;0.75;;;1.80;99.90;;;;;;4963717;29;20075;-76
2022/01/06 03:22:53;;;;;;;10.70;0.50;;;1.60;99.90;;;;;;4965544;28;20035;-75
2022/01/06 03:25:19;;;;;;;15.60;1.20;;;1.60;99.90;;;;;;4967169;29;20023;-76
2022/01/06 03:27:46;;;;;;;7.90;0.40;;;1.60;99.90;;;;;;4967172;29;20057;-76
2022/01/06 03:30:15;;;;;;;13.57;0.73;;;1.50;99.90;;;;;;4966979;29;20058;-75
2022/01/06 03:32:41;;;;;;;13.50;0.65;;;1.50;99.90;;;;;;4967278;29;20043;-76
2022/01/06 03:35:09;;;;;;;6.75;0.40;;;1.50;99.90;;;;;;4996396;28;20034;-76
2022/01/06 03:37:35;;;;;;;9.68;0.45;;;1.40;99.90;;;;;;5047749;28;20036;-75
2022/01/06 03:40:04;;;;;;;13.35;0.60;;;1.40;99.90;;;;;;5047414;28;20021;-75
2022/01/06 03:42:32;;;;;;;6.73;0.50;;;1.40;99.90;;;;;;5029875;28;20033;-76
2022/01/06 03:44:58;;;;;;;10.70;0.47;;;1.40;99.90;;;;;;5047510;28;20029;-76
2022/01/06 03:47:24;;;;;;;7.43;0.50;;;1.60;99.90;;;;;;5047579;28;20088;-76
2022/01/06 03:49:50;;;;;;;7.80;0.47;;;1.40;99.90;;;;;;5046183;28;20026;-76
2022/01/06 03:52:15;;;;;;;11.90;0.40;;;1.40;99.90;;;;;;5032421;28;20128;-76
2022/01/06 03:54:41;;;;;;;11.63;0.85;;;1.40;99.90;;;;;;5047281;28;20030;-76
2022/01/06 03:57:06;;;;;;;7.72;0.77;;;1.40;99.90;;;;;;5052540;28;20100;-76
2022/01/06 03:59:32;;;;;;;8.05;0.63;;;1.40;99.90;;;;;;5067292;28;20040;-76
2022/01/06 04:01:58;;;;;;;15.30;0.55;;;1.30;99.90;;;;;;5067351;28;20037;-76
2022/01/06 04:04:23;;;;;;;13.38;0.73;;;1.40;99.90;;;;;;5067107;28;20028;-76
2022/01/06 04:06:49;;;;;;;9.27;0.43;;;1.40;99.90;;;;;;5067323;28;20041;-77
2022/01/06 04:09:14;;;;;;;7.43;0.50;;;1.40;99.90;;;;;;5069984;28;20029;-75
2022/01/06 04:11:40;;;;;;;4.65;0.30;;;1.30;99.90;;;;;;5069536;28;20033;-76
2022/01/06 04:14:06;;;;;;;7.25;0.50;;;1.30;99.90;;;;;;5067053;28;20104;-76
2022/01/06 04:16:35;;;;;;;14.02;0.90;;;1.30;99.90;;;;;;5068005;28;20024;-75
2022/01/06 04:19:01;;;;;;;8.27;0.57;;;1.30;99.90;;;;;;5050511;28;20041;-76
2022/01/06 04:21:26;;;;;;;13.52;0.65;;;1.40;99.90;;;;;;5066960;28;20109;-76
2022/01/06 04:23:52;;;;;;;8.15;0.32;;;1.30;99.90;;;;;;5049027;28;20060;-77
2022/01/06 04:26:17;;;;;;;9.68;0.77;;;1.20;99.90;;;;;;5048838;28;20021;-76
2022/01/06 04:28:43;;;;;;;11.02;0.52;;;1.30;99.90;;;;;;5049012;28;20021;-76
2022/01/06 04:31:10;;;;;;;7.22;0.70;;;1.30;99.90;;;;;;5030068;28;20037;-75
2022/01/06 04:33:35;;;;;;;8.55;0.50;;;1.30;99.90;;;;;;5047832;28;20052;-76
2022/01/06 04:36:02;;;;;;;7.18;0.50;;;1.30;99.90;;;;;;5048721;28;20021;-76
2022/01/06 04:38:28;;;;;;;10.82;0.77;;;1.40;99.90;;;;;;5032293;28;20043;-76
2022/01/06 04:40:56;;;;;;;8.80;0.47;;;1.20;99.90;;;;;;5031992;28;20033;-76
2022/01/06 04:43:22;;;;;;;6.63;0.60;;;1.10;99.90;;;;;;5048650;28;20029;-75
2022/01/06 04:45:48;;;;;;;10.93;0.32;;;1.20;99.90;;;;;;5048536;28;20021;-76
2022/01/06 04:48:13;;;;;;;5.32;0.30;;;1.10;99.90;;;;;;5048726;28;20037;-76
2022/01/06 04:50:39;;;;;;;6.30;0.40;;;1.10;99.90;;;;;;5050142;28;20025;-76
2022/01/06 04:53:04;;;;;;;7.57;0.50;;;1.10;99.90;;;;;;5064896;28;20035;-76
2022/01/06 04:59:08;;;;;;;6.38;0.32;;;1.10;99.90;;;;;;4999539;28;20118;-76
2022/01/06 05:01:35;;;;;;;6.50;0.25;;;1.10;99.90;;;;;;4999727;28;20041;-76
2022/01/06 05:04:01;;;;;;;11.05;0.30;;;1.00;99.90;;;;;;4965184;28;20054;-76
2022/01/06 05:06:27;;;;;;;11.13;0.52;;;1.00;99.90;;;;;;5002387;28;20026;-76
2022/01/06 05:08:53;;;;;;;8.95;0.40;;;1.10;99.90;;;;;;5001053;28;20050;-76
2022/01/06 05:11:19;;;;;;;8.27;0.30;;;1.10;99.90;;;;;;5006268;28;20026;-77
2022/01/06 05:13:46;;;;;;;5.18;0.32;;;1.00;99.90;;;;;;4989006;28;20039;-77
2022/01/06 05:16:11;;;;;;;9.60;0.30;;;0.90;99.90;;;;;;5006586;28;20062;-82
2022/01/06 05:18:38;;;;;;;3.85;0.22;;;0.90;99.90;;;;;;5003528;28;20425;-79
2022/01/06 05:21:07;;;;;;;9.90;0.40;;;0.80;99.90;;;;;;5006350;28;20030;-80
2022/01/06 05:23:34;;;;;;;7.38;0.50;;;1.00;99.90;;;;;;4986240;28;20435;-79
2022/01/06 05:25:59;;;;;;;7.05;0.30;;;0.80;99.90;;;;;;5006121;28;20121;-81
2022/01/06 05:28:25;;;;;;;7.50;0.55;;;0.80;99.90;;;;;;5006301;28;20019;-81
2022/01/06 05:30:52;;;;;;;5.28;0.50;;;0.90;99.90;;;;;;5005853;28;20095;-81
2022/01/06 05:33:17;;;;;;;6.93;0.80;;;0.80;99.90;;;;;;5006450;28;20126;-81
2022/01/06 05:35:43;;;;;;;10.60;0.50;;;0.90;99.90;;;;;;5004918;28;20034;-78
2022/01/06 05:38:09;;;;;;;8.23;0.45;;;0.90;99.90;;;;;;5006377;28;20094;-83
2022/01/06 05:40:34;;;;;;;4.57;0.30;;;0.80;99.90;;;;;;4988784;28;20090;-80
2022/01/06 05:43:00;;;;;;;9.93;0.50;;;0.90;99.90;;;;;;5006107;28;20033;-82
2022/01/06 05:45:26;;;;;;;6.50;0.30;;;0.90;99.90;;;;;;5005969;28;20452;-82
2022/01/06 05:47:52;;;;;;;3.80;0.20;;;0.80;99.90;;;;;;5004875;28;20042;-82
2022/01/06 05:50:18;;;;;;;5.53;0.40;;;0.80;99.90;;;;;;4985788;28;20041;-81
2022/01/06 05:52:44;;;;;;;3.42;0.20;;;1.00;99.90;;;;;;4988670;28;20083;-79
2022/01/06 05:55:10;;;;;;;5.63;0.20;;;0.90;99.90;;;;;;5006017;28;20061;-80
2022/01/06 05:57:35;;;;;;;5.93;0.30;;;0.90;99.90;;;;;;5016309;28;20128;-79
2022/01/06 06:00:02;;;;;;;5.95;0.30;;;0.80;99.90;;;;;;5025183;28;20044;-81
2022/01/06 06:02:29;;;;;;;6.65;0.45;;;0.80;99.90;;;;;;5025519;28;20022;-81
2022/01/06 06:04:55;;;;;;;11.90;0.35;;;0.80;99.90;;;;;;5007352;28;20477;-81
2022/01/06 06:07:21;;;;;;;10.48;0.35;;;0.90;99.90;;;;;;5001060;28;20053;-85
2022/01/06 06:09:47;;;;;;;10.63;0.95;;;0.90;99.90;;;;;;5022688;28;20041;-85
2022/01/06 06:12:13;;;;;;;9.07;0.20;;;0.80;99.90;;;;;;5024693;28;20466;-83
2022/01/06 06:14:38;;;;;;;9.00;0.30;;;0.70;99.90;;;;;;5024322;28;20026;-85
2022/01/06 06:17:04;;;;;;;6.20;0.43;;;0.70;99.90;;;;;;5023499;28;20052;-86
2022/01/06 06:19:30;;;;;;;3.17;0.20;;;0.60;99.90;;;;;;5022986;28;20414;-87
2022/01/06 06:21:55;;;;;;;6.97;0.50;;;0.70;99.90;;;;;;5020823;28;20102;-85
2022/01/06 06:24:23;;;;;;;4.30;0.20;;;0.60;99.90;;;;;;5024129;28;20052;-87
2022/01/06 06:26:50;;;;;;;6.88;0.20;;;0.50;99.90;;;;;;5007605;28;20060;-83
2022/01/06 06:29:19;;;;;;;9.15;0.40;;;0.40;99.90;;;;;;5007869;28;20061;-86
2022/01/06 06:31:45;;;;;;;3.63;0.20;;;0.40;99.90;;;;;;5019776;28;20034;-86
2022/01/06 06:34:11;;;;;;;6.18;0.20;;;0.30;99.90;;;;;;5007902;28;20072;-85
2022/01/06 06:36:37;;;;;;;4.60;0.68;;;0.30;99.90;;;;;;5007816;28;20037;-86
2022/01/06 06:39:03;;;;;;;3.67;0.30;;;0.30;99.90;;;;;;5007945;28;20045;-84
2022/01/06 06:41:29;;;;;;;9.82;0.30;;;0.30;99.90;;;;;;5023925;28;20496;-84
2022/01/06 06:43:54;;;;;;;7.25;0.55;;;0.60;99.90;;;;;;5025367;28;20018;-85
2022/01/06 06:46:20;;;;;;;2.30;0.20;;;0.50;99.90;;;;;;5023987;28;20056;-86
2022/01/06 06:48:46;;;;;;;3.50;0.30;;;0.50;99.90;;;;;;5008005;28;20029;-86
2022/01/06 06:51:13;;;;;;;7.93;0.40;;;0.50;99.90;;;;;;5021212;28;20102;-85
2022/01/06 06:53:40;;;;;;;10.02;0.25;;;0.60;99.90;;;;;;5024130;28;20125;-86
2022/01/06 06:56:06;;;;;;;7.28;0.40;;;0.60;99.90;;;;;;5023467;28;20034;-79
2022/01/06 06:58:32;;;;;;;10.75;0.52;;;0.60;99.90;;;;;;5010466;28;20049;-86
2022/01/06 07:00:57;;;;;;;6.50;0.30;;;0.60;99.90;;;;;;5024514;28;20021;-85
2022/01/06 07:03:23;;;;;;;3.63;0.30;;;0.40;99.90;;;;;;5011510;28;20554;-86
2022/01/06 07:05:48;;;;;;;5.70;0.35;;;0.50;99.90;;;;;;5026020;28;20125;-85
2022/01/06 07:08:14;;;;;;;4.65;0.30;;;0.60;99.90;;;;;;5011736;28;20113;-86
2022/01/06 07:10:40;;;;;;;6.55;0.30;;;0.50;99.90;;;;;;5027932;28;20468;-84
2022/01/06 07:13:05;;;;;;;7.97;0.40;;;0.40;99.90;;;;;;5011251;28;20045;-85
2022/01/06 07:15:33;;;;;;;4.70;0.40;;;0.50;99.90;;;;;;5011264;28;20022;-86
2022/01/06 07:17:58;;;;;;;4.78;0.30;;;0.50;99.90;;;;;;4995022;28;20044;-85
2022/01/06 07:20:24;;;;;;;3.92;0.30;;;0.50;99.90;;;;;;5024891;28;20046;-85
2022/01/06 07:22:49;;;;;;;10.73;2.08;;;0.50;99.90;;;;;;5011161;28;20034;-85
2022/01/06 07:25:16;;;;;;;6.72;0.40;;;0.50;99.90;;;;;;5011288;28;20033;-86
2022/01/06 07:27:42;;;;;;;8.60;0.30;;;0.60;99.90;;;;;;5028410;28;20030;-86
2022/01/06 07:30:08;;;;;;;5.28;0.32;;;0.60;99.90;;;;;;5028306;28;20030;-85
2022/01/06 07:32:54;;;;;;;11.65;1.02;;;0.50;99.90;;;;;;5028328;28;20034;-83
2022/01/06 07:35:21;;;;;;;4.22;0.40;;;0.50;99.90;;;;;;5025493;28;20417;-86
2022/01/06 07:37:48;;;;;;;5.38;0.30;;;0.40;99.90;;;;;;5028547;28;20049;-85
2022/01/06 07:40:14;;;;;;;3.72;0.30;;;0.40;99.90;;;;;;5028189;28;20025;-83
2022/01/06 07:42:40;;;;;;;10.40;0.40;;;0.30;99.90;;;;;;5025470;28;20034;-86
2022/01/06 07:45:06;;;;;;;2.58;0.20;;;0.50;99.90;;;;;;5010766;28;20050;-86
2022/01/06 07:47:35;;;;;;;5.28;0.30;;;0.40;99.90;;;;;;5025293;28;20026;-83
2022/01/06 07:50:00;;;;;;;5.00;0.30;;;0.40;99.90;;;;;;4994159;28;20367;-86
2022/01/06 07:52:26;;;;;;;4.25;0.30;;;0.30;99.90;;;;;;5027304;28;20038;-82
2022/01/06 07:54:51;;;;;;;5.03;0.30;;;0.20;99.90;;;;;;5024693;28;20046;-86
2022/01/06 07:57:17;;;;;;;4.50;0.30;;;0.10;99.90;;;;;;5023904;28;20069;-85
2022/01/06 07:59:43;;;;;;;2.63;0.20;;;0.10;99.90;;;;;;5023510;28;20038;-83
2022/01/06 08:02:09;;;;;;;4.57;0.30;;;0.00;99.90;;;;;;5027065;28;20196;-80
2022/01/06 08:04:35;;;;;;;1.98;0.30;;;0.10;99.90;;;;;;5004965;28;20026;-85
2022/01/06 08:07:01;;;;;;;4.47;0.30;;;0.00;99.90;;;;;;5024444;28;20181;-86
2022/01/06 08:09:27;;;;;;;3.65;0.30;;;0.00;99.90;;;;;;5026835;28;20048;-82
2022/01/06 08:11:52;;;;;;;1.95;0.20;;;0.00;99.90;;;;;;5026883;28;20029;-84
2022/01/06 08:14:18;;;;;;;5.45;0.20;;;-0.10;99.90;;;;;;5027022;28;20045;-86
2022/01/06 08:16:44;;;;;;;5.60;0.20;;;0.00;99.90;;;;;;5026724;28;20025;-84
2022/01/06 08:19:10;;;;;;;4.80;0.30;;;-0.10;99.90;;;;;;5009201;28;20061;-80
2022/01/06 08:21:35;;;;;;;5.90;0.50;;;-0.10;99.90;;;;;;5021516;28;20451;-83
2022/01/06 08:24:01;;;;;;;4.28;0.30;;;-0.10;99.90;;;;;;5025522;28;20068;-86
2022/01/06 08:26:26;;;;;;;6.10;0.63;;;-0.10;99.90;;;;;;5026535;28;20049;-83
2022/01/06 08:28:52;;;;;;;3.22;0.22;;;-0.10;99.90;;;;;;5025560;28;20501;-83
2022/01/06 08:31:17;;;;;;;6.55;0.50;;;0.00;99.90;;;;;;5022561;28;20465;-84
2022/01/06 08:33:45;;;;;;;4.25;0.20;;;0.00;99.90;;;;;;5009021;28;20041;-83
2022/01/06 08:36:12;;;;;;;4.82;0.40;;;0.00;99.90;;;;;;5024001;28;20419;-82
2022/01/06 08:38:38;;;;;;;3.00;0.30;;;0.00;99.90;;;;;;5026825;28;20041;-82
2022/01/06 08:41:03;;;;;;;1.55;0.30;;;0.00;99.90;;;;;;5026381;28;20038;-86
2022/01/06 08:43:29;;;;;;;3.10;0.35;;;0.00;99.90;;;;;;5026509;28;20022;-84
2022/01/06 08:45:56;;;;;;;2.92;0.25;;;0.10;99.90;;;;;;5022620;28;20032;-86
2022/01/06 08:48:25;;;;;;;4.63;0.20;;;0.00;99.90;;;;;;5024996;28;20026;-85
2022/01/06 08:50:51;;;;;;;5.40;0.30;;;0.00;99.90;;;;;;4992723;28;20030;-83
2022/01/06 08:53:17;;;;;;;3.05;0.35;;;0.10;99.90;;;;;;5008465;28;20080;-84
2022/01/06 08:56:03;;;;;;;2.63;0.20;;;0.10;99.90;;;;;;5026089;28;20041;-84
2022/01/06 08:58:28;;;;;;;3.92;0.20;;;0.10;99.90;;;;;;4941357;29;20051;-84
2022/01/06 09:00:54;;;;;;;4.80;0.30;;;0.10;99.90;;;;;;4944749;29;20492;-85
2022/01/06 09:03:20;;;;;;;3.15;0.30;;;0.20;99.90;;;;;;4930310;29;20044;-85
2022/01/06 09:05:45;;;;;;;2.28;0.38;;;0.40;99.90;;;;;;4930136;29;20070;-79
2022/01/06 09:08:11;;;;;;;2.67;0.20;;;0.40;99.90;;;;;;4930028;29;20046;-85
2022/01/06 09:10:37;;;;;;;3.97;0.30;;;0.50;99.90;;;;;;4945842;29;20130;-82
2022/01/06 09:13:04;;;;;;;7.32;0.30;;;0.50;99.90;;;;;;4929817;29;20090;-77
2022/01/06 09:15:30;;;;;;;2.92;0.47;;;0.80;99.90;;;;;;4945722;29;20044;-82
2022/01/06 09:17:56;;;;;;;2.55;0.22;;;1.00;99.90;;;;;;4929658;29;20051;-77
2022/01/06 09:20:22;;;;;;;3.38;0.30;;;0.90;99.90;;;;;;4929403;29;20046;-80
2022/01/06 09:22:48;;;;;;;5.32;0.43;;;0.90;99.90;;;;;;4945569;29;20036;-85
2022/01/06 09:25:15;;;;;;;2.00;0.30;;;1.00;99.90;;;;;;4945582;29;20058;-81
2022/01/06 09:27:41;;;;;;;5.55;0.40;;;1.00;99.90;;;;;;4942956;29;20060;-84
2022/01/06 09:30:07;;;;;;;4.95;0.30;;;1.20;99.90;;;;;;4945279;29;20142;-81
2022/01/06 09:32:33;;;;;;;6.15;0.73;;;1.20;99.90;;;;;;4929553;29;20050;-78
2022/01/06 09:35:00;;;;;;;9.00;0.40;;;1.30;99.90;;;;;;4961660;28;20042;-84
2022/01/06 09:37:25;;;;;;;2.53;0.40;;;1.40;99.90;;;;;;5005801;28;20026;-81
2022/01/06 09:39:51;;;;;;;4.38;0.40;;;1.50;99.90;;;;;;5005690;28;20033;-84
2022/01/06 09:42:19;;;;;;;4.45;0.50;;;1.70;99.90;;;;;;5020738;28;20031;-79
2022/01/06 09:44:47;;;;;;;3.63;0.30;;;1.70;99.90;;;;;;4987842;28;20043;-80
2022/01/06 09:47:13;;;;;;;6.93;0.50;;;1.70;99.90;;;;;;5020631;28;20080;-80
2022/01/06 09:49:40;;;;;;;3.38;0.40;;;1.90;99.90;;;;;;5017635;28;20030;-80
2022/01/06 09:52:06;;;;;;;2.80;0.40;;;2.00;99.90;;;;;;4987983;28;20039;-81
2022/01/06 09:54:34;;;;;;;6.03;0.50;;;2.00;99.90;;;;;;5005436;28;20057;-78
2022/01/06 09:56:59;;;;;;;4.00;0.45;;;2.10;99.90;;;;;;5023521;28;20109;-79
2022/01/06 09:59:26;;;;;;;3.70;0.40;;;2.10;99.90;;;;;;5007183;28;20049;-78
2022/01/06 10:01:52;;;;;;;5.57;0.40;;;2.20;99.90;;;;;;5022135;28;20025;-78
2022/01/06 10:04:27;;;;;;;10.88;0.93;;;2.40;99.90;;;;;;5023377;28;20040;-78
2022/01/06 10:07:04;;;;;;;8.98;0.80;;;2.50;99.90;;;;;;5024348;28;20061;-80
2022/01/06 10:09:33;;;;;;;8.35;0.75;;;2.60;99.90;;;;;;5024596;28;20053;-81
2022/01/06 10:11:59;;;;;;;9.63;1.65;;;2.70;99.90;;;;;;5024751;28;20053;-78
2022/01/06 10:14:38;;;;;;;10.27;0.85;;;2.80;99.90;;;;;;4988092;28;20033;-77
2022/01/06 10:17:04;;;;;;;11.48;0.77;;;2.90;99.90;;;;;;5023575;28;20038;-77
2022/01/06 10:19:30;;;;;;;12.60;1.17;;;2.90;99.90;;;;;;5006773;28;20029;-78
2022/01/06 10:21:58;;;;;;;5.03;0.90;;;3.00;99.90;;;;;;5024901;28;20049;-78
2022/01/06 10:24:28;;;;;;;7.75;0.95;;;3.10;99.90;;;;;;5007005;28;20040;-80
2022/01/06 10:26:57;;;;;;;11.63;0.85;;;3.10;99.90;;;;;;5004135;28;20049;-78
2022/01/06 10:29:29;;;;;;;7.70;0.65;;;3.20;99.90;;;;;;5023381;28;20034;-78
2022/01/06 10:32:24;;;;;;;7.55;0.88;;;3.30;99.90;;;;;;4991100;28;20400;-78
2022/01/06 10:35:03;;;;;;;5.90;0.60;;;3.40;99.90;;;;;;5023544;28;20045;-80
2022/01/06 10:37:40;;;;;;;5.13;0.75;;;3.50;99.90;;;;;;5011160;28;20026;-78
2022/01/06 10:40:24;;;;;;;5.57;0.40;;;3.60;99.90;;;;;;5010882;28;20045;-80
2022/01/06 10:42:53;;;;;;;11.65;0.90;;;3.60;99.90;;;;;;5028996;28;20081;-84
2022/01/06 10:45:25;;;;;;;6.28;0.73;;;3.70;99.90;;;;;;5011547;28;20045;-83
2022/01/06 10:47:55;;;;;;;8.05;0.80;;;3.70;99.90;;;;;;5027959;28;20030;-84
2022/01/06 10:50:33;;;;;;;9.02;1.08;;;3.90;99.90;;;;;;5028318;28;20022;-84
2022/01/06 10:52:58;;;;;;;9.15;0.70;;;4.00;99.90;;;;;;5026968;28;20045;-81
2022/01/06 10:55:49;;;;;;;7.82;0.88;;;4.00;99.90;;;;;;5027033;28;20049;-81
2022/01/06 10:58:17;;;;;;;9.55;0.68;;;4.10;99.90;;;;;;5022072;28;20049;-82
2022/01/06 11:00:55;;;;;;;4.00;0.50;;;4.20;99.90;;;;;;4999820;28;20030;-79
2022/01/06 11:03:23;;;;;;;8.43;0.60;;;4.20;99.90;;;;;;5028226;28;20378;-84
2022/01/06 11:05:56;;;;;;;8.15;0.60;;;4.30;99.90;;;;;;5027182;28;20093;-83
2022/01/06 11:08:31;;;;;;;6.13;0.57;;;4.40;99.90;;;;;;5010697;28;20030;-83
2022/01/06 11:11:14;;;;;;;7.47;0.50;;;4.50;99.90;;;;;;5027929;28;20053;-82
2022/01/06 11:13:42;;;;;;;2.78;0.40;;;4.60;99.90;;;;;;5028087;28;20044;-83
2022/01/06 11:16:12;;;;;;;7.85;0.85;;;4.70;99.90;;;;;;5027942;28;20018;-81
2022/01/06 11:18:58;;;;;;;5.38;0.40;;;4.80;99.90;;;;;;5026720;28;20026;-77
2022/01/06 11:21:36;;;;;;;5.03;0.50;;;4.90;99.90;;;;;;5025872;28;20076;-83
2022/01/06 11:24:14;;;;;;;7.22;0.52;;;4.90;99.90;;;;;;5010224;28;20049;-78
2022/01/06 11:26:42;;;;;;;7.78;0.47;;;5.00;99.90;;;;;;5027544;28;20033;-82
2022/01/06 11:29:08;;;;;;;4.85;0.50;;;5.00;99.90;;;;;;5027624;28;20049;-82
2022/01/06 11:31:40;;;;;;;5.10;0.60;;;5.00;99.90;;;;;;5027781;28;20041;-83
2022/01/06 11:34:18;;;;;;;3.88;0.47;;;5.10;99.90;;;;;;5026211;28;20038;-84
2022/01/06 11:36:46;;;;;;;4.18;0.43;;;5.20;99.90;;;;;;5009552;28;20060;-82
2022/01/06 11:39:30;;;;;;;3.15;0.43;;;5.10;99.90;;;;;;5027430;28;20030;-83
2022/01/06 11:41:58;;;;;;;3.97;0.60;;;5.30;99.90;;;;;;5027355;28;20032;-81
2022/01/06 11:44:26;;;;;;;5.90;0.50;;;5.40;99.90;;;;;;5009190;28;20053;-81
2022/01/06 11:46:57;;;;;;;5.13;0.80;;;5.40;99.90;;;;;;5027531;28;20145;-82
2022/01/06 11:49:39;;;;;;;11.10;0.77;;;5.40;99.90;;;;;;5025879;28;20022;-80
2022/01/06 11:52:13;;;;;;;7.55;0.60;;;5.40;99.90;;;;;;5009377;28;20046;-83
2022/01/06 11:54:55;;;;;;;6.28;0.50;;;5.40;99.90;;;;;;5027294;28;20034;-80
2022/01/06 11:57:47;;;;;;;6.10;1.20;;;5.60;99.90;;;;;;5026676;28;20045;-83
2022/01/06 12:00:26;;;;;;;5.82;0.40;;;5.50;99.90;;;;;;5004259;28;20399;-81
2022/01/06 12:03:05;;;;;;;16.15;1.17;;;5.60;99.90;;;;;;5026505;28;20478;-83
2022/01/06 12:05:54;;;;;;;9.80;1.48;;;5.40;99.90;;;;;;5024409;28;20026;-82
2022/01/06 12:08:34;;;;;;;11.30;0.82;;;5.30;99.90;;;;;;5026646;28;20033;-82
2022/01/06 12:11:00;;;;;;;11.82;0.60;;;5.50;99.90;;;;;;5025178;28;20080;-78
2022/01/06 12:13:26;;;;;;;11.07;0.77;;;5.50;99.90;;;;;;5008044;28;20038;-83
2022/01/06 12:15:58;;;;;;;4.50;0.68;;;5.30;99.90;;;;;;5026027;28;20018;-83
2022/01/06 12:18:27;;;;;;;9.43;0.70;;;5.30;99.90;;;;;;5026080;28;20030;-83
2022/01/06 12:20:55;;;;;;;7.60;0.85;;;5.10;99.90;;;;;;5024963;28;20026;-81
2022/01/06 12:23:21;;;;;;;8.80;0.63;;;5.10;99.90;;;;;;5026394;28;20034;-81
2022/01/06 12:26:08;;;;;;;9.98;1.42;;;5.30;99.90;;;;;;5025998;28;20471;-78
2022/01/06 12:28:44;;;;;;;4.05;0.50;;;5.40;99.90;;;;;;5026436;28;20037;-80
2022/01/06 12:31:09;;;;;;;7.00;0.45;;;5.60;99.90;;;;;;5023409;28;20089;-80
2022/01/06 12:33:42;;;;;;;9.15;0.70;;;5.50;99.90;;;;;;5026116;28;20068;-81
2022/01/06 12:36:08;;;;;;;4.75;0.70;;;5.40;99.90;;;;;;5026030;28;20105;-81
2022/01/06 12:38:37;;;;;;;10.70;0.98;;;5.60;99.90;;;;;;5025955;28;20030;-81
2022/01/06 12:41:03;;;;;;;3.33;0.43;;;5.60;99.90;;;;;;5025971;28;20033;-79
2022/01/06 12:43:32;;;;;;;7.45;0.88;;;5.70;99.90;;;;;;5026016;28;20022;-81
2022/01/06 12:46:15;;;;;;;5.45;0.60;;;5.70;99.90;;;;;;5025676;28;20029;-77
2022/01/06 12:48:42;;;;;;;9.88;0.60;;;5.60;99.90;;;;;;5026093;28;20061;-81
2022/01/06 12:51:11;;;;;;;5.45;0.50;;;5.50;99.90;;;;;;5025491;28;20113;-81
2022/01/06 12:53:43;;;;;;;11.43;1.33;;;5.60;99.90;;;;;;5025612;28;20041;-81
2022/01/06 12:56:29;;;;;;;8.93;0.63;;;5.50;99.90;;;;;;5024692;28;20025;-81
2022/01/06 12:58:56;;;;;;;8.27;0.40;;;5.60;99.90;;;;;;5025696;28;20057;-76
2022/01/06 13:01:22;;;;;;;8.07;0.43;;;5.70;99.90;;;;;;5025480;28;20421;-76
2022/01/06 13:03:53;;;;;;;6.80;0.50;;;5.80;99.90;;;;;;5008245;28;20090;-76
2022/01/06 13:06:24;;;;;;;6.18;0.80;;;5.70;99.90;;;;;;5024372;28;20048;-76
2022/01/06 13:08:52;;;;;;;6.15;0.45;;;5.70;99.90;;;;;;5025462;28;20033;-76
2022/01/06 13:11:19;;;;;;;3.30;0.40;;;5.70;99.90;;;;;;5025636;28;20566;-76
2022/01/06 13:13:54;;;;;;;4.40;0.60;;;5.80;99.90;;;;;;5025445;28;20038;-76